sensor_id;sensor_type;location;lat;lon;timestamp;P1;durP1;ratioP1;P2;durP2;ratioP2
60241;SDS011;46103;52.076;113.488;2023-08-08T00:01:33;17.35;;;12.35;;
60241;SDS011;46103;52.076;113.488;2023-08-08T00:04:37;17.55;;;12.32;;
60241;SDS011;46103;52.076;113.488;2023-08-08T00:07:41;17.23;;;12.07;;
60241;SDS011;46103;52.076;113.488;2023-08-08T00:10:45;18.42;;;13.00;;
60241;SDS011;46103;52.076;113.488;2023-08-08T00:13:49;17.42;;;12.88;;
60241;SDS011;46103;52.076;113.488;2023-08-08T00:16:52;16.77;;;12.73;;
60241;SDS011;46103;52.076;113.488;2023-08-08T00:19:56;17.02;;;12.95;;
60241;SDS011;46103;52.076;113.488;2023-08-08T00:23:03;17.00;;;12.73;;
60241;SDS011;46103;52.076;113.488;2023-08-08T00:26:07;18.80;;;12.30;;
60241;SDS011;46103;52.076;113.488;2023-08-08T00:29:11;21.85;;;12.77;;
60241;SDS011;46103;52.076;113.488;2023-08-08T00:32:15;19.15;;;13.50;;
60241;SDS011;46103;52.076;113.488;2023-08-08T00:35:19;22.88;;;14.45;;
60241;SDS011;46103;52.076;113.488;2023-08-08T00:38:23;22.42;;;13.85;;
60241;SDS011;46103;52.076;113.488;2023-08-08T00:41:26;17.80;;;13.32;;
60241;SDS011;46103;52.076;113.488;2023-08-08T00:44:31;18.10;;;13.32;;
60241;SDS011;46103;52.076;113.488;2023-08-08T00:47:35;19.98;;;13.60;;
60241;SDS011;46103;52.076;113.488;2023-08-08T00:50:41;19.42;;;12.88;;
60241;SDS011;46103;52.076;113.488;2023-08-08T00:53:46;20.10;;;14.00;;
60241;SDS011;46103;52.076;113.488;2023-08-08T00:56:51;19.83;;;12.70;;
60241;SDS011;46103;52.076;113.488;2023-08-08T00:59:54;16.60;;;12.85;;
60241;SDS011;46103;52.076;113.488;2023-08-08T01:02:58;21.25;;;14.43;;
60241;SDS011;46103;52.076;113.488;2023-08-08T01:06:03;18.40;;;13.25;;
60241;SDS011;46103;52.076;113.488;2023-08-08T01:09:21;17.10;;;12.65;;
60241;SDS011;46103;52.076;113.488;2023-08-08T01:12:31;17.02;;;13.48;;
60241;SDS011;46103;52.076;113.488;2023-08-08T01:15:35;17.58;;;13.32;;
60241;SDS011;46103;52.076;113.488;2023-08-08T01:18:40;19.60;;;15.00;;
60241;SDS011;46103;52.076;113.488;2023-08-08T01:21:46;19.02;;;13.63;;
60241;SDS011;46103;52.076;113.488;2023-08-08T01:24:51;17.90;;;13.15;;
60241;SDS011;46103;52.076;113.488;2023-08-08T01:27:57;18.75;;;13.30;;
60241;SDS011;46103;52.076;113.488;2023-08-08T01:31:00;17.90;;;14.18;;
60241;SDS011;46103;52.076;113.488;2023-08-08T01:34:04;19.45;;;14.38;;
60241;SDS011;46103;52.076;113.488;2023-08-08T01:37:54;16.05;;;11.27;;
60241;SDS011;46103;52.076;113.488;2023-08-08T01:40:37;15.57;;;13.88;;
60241;SDS011;46103;52.076;113.488;2023-08-08T01:43:43;16.05;;;11.93;;
60241;SDS011;46103;52.076;113.488;2023-08-08T01:46:48;15.30;;;12.32;;
60241;SDS011;46103;52.076;113.488;2023-08-08T01:49:51;15.43;;;11.77;;
60241;SDS011;46103;52.076;113.488;2023-08-08T01:52:54;15.35;;;12.55;;
60241;SDS011;46103;52.076;113.488;2023-08-08T01:55:59;15.80;;;12.77;;
60241;SDS011;46103;52.076;113.488;2023-08-08T01:59:03;15.32;;;11.95;;
60241;SDS011;46103;52.076;113.488;2023-08-08T02:02:10;18.58;;;13.43;;
60241;SDS011;46103;52.076;113.488;2023-08-08T02:05:16;17.38;;;12.43;;
60241;SDS011;46103;52.076;113.488;2023-08-08T02:08:22;14.85;;;11.73;;
60241;SDS011;46103;52.076;113.488;2023-08-08T02:11:29;16.52;;;12.45;;
60241;SDS011;46103;52.076;113.488;2023-08-08T02:14:36;16.40;;;12.50;;
60241;SDS011;46103;52.076;113.488;2023-08-08T02:17:41;15.15;;;10.48;;
60241;SDS011;46103;52.076;113.488;2023-08-08T02:20:51;14.18;;;11.10;;
60241;SDS011;46103;52.076;113.488;2023-08-08T02:23:57;13.63;;;10.52;;
60241;SDS011;46103;52.076;113.488;2023-08-08T02:27:02;15.35;;;11.73;;
60241;SDS011;46103;52.076;113.488;2023-08-08T02:30:07;13.60;;;11.13;;
60241;SDS011;46103;52.076;113.488;2023-08-08T02:33:13;13.65;;;11.05;;
60241;SDS011;46103;52.076;113.488;2023-08-08T02:36:18;13.88;;;11.88;;
60241;SDS011;46103;52.076;113.488;2023-08-08T02:39:24;12.93;;;10.48;;
60241;SDS011;46103;52.076;113.488;2023-08-08T02:42:29;14.20;;;12.25;;
60241;SDS011;46103;52.076;113.488;2023-08-08T02:45:34;13.30;;;10.75;;
60241;SDS011;46103;52.076;113.488;2023-08-08T02:48:39;13.05;;;11.07;;
60241;SDS011;46103;52.076;113.488;2023-08-08T02:51:45;14.40;;;10.70;;
60241;SDS011;46103;52.076;113.488;2023-08-08T02:54:51;13.55;;;11.13;;
60241;SDS011;46103;52.076;113.488;2023-08-08T02:57:58;13.35;;;10.98;;
60241;SDS011;46103;52.076;113.488;2023-08-08T03:01:04;13.90;;;11.10;;
60241;SDS011;46103;52.076;113.488;2023-08-08T03:04:10;16.60;;;12.00;;
60241;SDS011;46103;52.076;113.488;2023-08-08T03:07:16;13.52;;;12.13;;
60241;SDS011;46103;52.076;113.488;2023-08-08T03:10:22;14.93;;;11.75;;
60241;SDS011;46103;52.076;113.488;2023-08-08T03:13:29;15.23;;;11.40;;
60241;SDS011;46103;52.076;113.488;2023-08-08T03:16:37;13.10;;;11.70;;
60241;SDS011;46103;52.076;113.488;2023-08-08T03:19:43;13.10;;;11.68;;
60241;SDS011;46103;52.076;113.488;2023-08-08T03:22:49;12.98;;;11.60;;
60241;SDS011;46103;52.076;113.488;2023-08-08T03:25:55;13.10;;;10.65;;
60241;SDS011;46103;52.076;113.488;2023-08-08T03:29:01;13.23;;;11.65;;
60241;SDS011;46103;52.076;113.488;2023-08-08T03:32:13;14.40;;;11.65;;
60241;SDS011;46103;52.076;113.488;2023-08-08T03:35:18;13.68;;;11.98;;
60241;SDS011;46103;52.076;113.488;2023-08-08T03:38:23;14.30;;;11.13;;
60241;SDS011;46103;52.076;113.488;2023-08-08T03:41:30;13.38;;;11.38;;
60241;SDS011;46103;52.076;113.488;2023-08-08T03:44:36;12.85;;;10.35;;
60241;SDS011;46103;52.076;113.488;2023-08-08T03:47:45;10.25;;;9.25;;
60241;SDS011;46103;52.076;113.488;2023-08-08T03:50:51;9.75;;;8.68;;
60241;SDS011;46103;52.076;113.488;2023-08-08T03:54:07;11.50;;;9.75;;
60241;SDS011;46103;52.076;113.488;2023-08-08T03:58:07;9.98;;;9.00;;
60241;SDS011;46103;52.076;113.488;2023-08-08T04:01:13;10.63;;;9.60;;
60241;SDS011;46103;52.076;113.488;2023-08-08T04:04:20;10.32;;;8.88;;
60241;SDS011;46103;52.076;113.488;2023-08-08T04:07:25;9.48;;;8.15;;
60241;SDS011;46103;52.076;113.488;2023-08-08T04:10:33;9.00;;;7.70;;
60241;SDS011;46103;52.076;113.488;2023-08-08T04:13:39;10.82;;;9.77;;
60241;SDS011;46103;52.076;113.488;2023-08-08T04:16:43;11.18;;;10.07;;
60241;SDS011;46103;52.076;113.488;2023-08-08T04:19:46;10.88;;;9.75;;
60241;SDS011;46103;52.076;113.488;2023-08-08T04:22:51;10.32;;;9.27;;
60241;SDS011;46103;52.076;113.488;2023-08-08T04:25:55;10.85;;;9.70;;
60241;SDS011;46103;52.076;113.488;2023-08-08T04:28:59;10.68;;;9.63;;
60241;SDS011;46103;52.076;113.488;2023-08-08T04:32:03;10.82;;;9.73;;
60241;SDS011;46103;52.076;113.488;2023-08-08T04:35:07;11.68;;;10.57;;
60241;SDS011;46103;52.076;113.488;2023-08-08T04:38:13;11.50;;;10.30;;
60241;SDS011;46103;52.076;113.488;2023-08-08T04:41:22;10.77;;;9.57;;
60241;SDS011;46103;52.076;113.488;2023-08-08T04:44:27;9.60;;;8.48;;
60241;SDS011;46103;52.076;113.488;2023-08-08T04:47:34;11.20;;;10.13;;
60241;SDS011;46103;52.076;113.488;2023-08-08T04:50:40;10.93;;;9.93;;
60241;SDS011;46103;52.076;113.488;2023-08-08T04:53:46;11.27;;;10.07;;
60241;SDS011;46103;52.076;113.488;2023-08-08T04:56:51;9.80;;;8.77;;
60241;SDS011;46103;52.076;113.488;2023-08-08T04:59:56;11.65;;;10.60;;
60241;SDS011;46103;52.076;113.488;2023-08-08T05:03:05;11.05;;;9.95;;
60241;SDS011;46103;52.076;113.488;2023-08-08T05:06:15;12.23;;;11.02;;
60241;SDS011;46103;52.076;113.488;2023-08-08T05:09:20;11.02;;;10.02;;
60241;SDS011;46103;52.076;113.488;2023-08-08T05:12:30;11.35;;;10.35;;
60241;SDS011;46103;52.076;113.488;2023-08-08T05:15:35;9.93;;;8.98;;
60241;SDS011;46103;52.076;113.488;2023-08-08T05:18:40;13.70;;;12.38;;
60241;SDS011;46103;52.076;113.488;2023-08-08T05:21:50;10.48;;;8.30;;
60241;SDS011;46103;52.076;113.488;2023-08-08T05:24:56;9.80;;;8.65;;
60241;SDS011;46103;52.076;113.488;2023-08-08T05:28:03;11.68;;;10.52;;
60241;SDS011;46103;52.076;113.488;2023-08-08T05:31:08;9.30;;;7.50;;
60241;SDS011;46103;52.076;113.488;2023-08-08T05:34:15;10.70;;;9.60;;
60241;SDS011;46103;52.076;113.488;2023-08-08T05:37:20;9.93;;;8.93;;
60241;SDS011;46103;52.076;113.488;2023-08-08T05:40:25;9.60;;;8.68;;
60241;SDS011;46103;52.076;113.488;2023-08-08T05:43:30;10.18;;;9.27;;
60241;SDS011;46103;52.076;113.488;2023-08-08T05:46:36;9.15;;;8.35;;
60241;SDS011;46103;52.076;113.488;2023-08-08T05:49:41;9.48;;;8.55;;
60241;SDS011;46103;52.076;113.488;2023-08-08T05:52:49;9.73;;;8.73;;
60241;SDS011;46103;52.076;113.488;2023-08-08T05:55:54;8.82;;;7.93;;
60241;SDS011;46103;52.076;113.488;2023-08-08T05:59:02;10.13;;;9.05;;
60241;SDS011;46103;52.076;113.488;2023-08-08T06:02:09;9.35;;;8.45;;
60241;SDS011;46103;52.076;113.488;2023-08-08T06:05:19;9.52;;;8.65;;
60241;SDS011;46103;52.076;113.488;2023-08-08T06:08:27;9.40;;;8.50;;
60241;SDS011;46103;52.076;113.488;2023-08-08T06:11:33;9.77;;;8.82;;
60241;SDS011;46103;52.076;113.488;2023-08-08T06:14:39;9.13;;;8.32;;
60241;SDS011;46103;52.076;113.488;2023-08-08T06:17:44;9.77;;;8.02;;
60241;SDS011;46103;52.076;113.488;2023-08-08T06:20:49;8.38;;;6.82;;
60241;SDS011;46103;52.076;113.488;2023-08-08T06:23:55;9.25;;;7.43;;
60241;SDS011;46103;52.076;113.488;2023-08-08T06:27:01;9.20;;;7.85;;
60241;SDS011;46103;52.076;113.488;2023-08-08T06:30:06;8.20;;;7.18;;
60241;SDS011;46103;52.076;113.488;2023-08-08T06:33:13;9.15;;;7.88;;
60241;SDS011;46103;52.076;113.488;2023-08-08T06:36:18;9.00;;;7.78;;
60241;SDS011;46103;52.076;113.488;2023-08-08T06:39:25;11.18;;;10.25;;
60241;SDS011;46103;52.076;113.488;2023-08-08T06:43:11;8.10;;;7.30;;
60241;SDS011;46103;52.076;113.488;2023-08-08T06:46:36;10.50;;;9.60;;
60241;SDS011;46103;52.076;113.488;2023-08-08T06:49:43;8.38;;;7.00;;
60241;SDS011;46103;52.076;113.488;2023-08-08T06:52:56;11.13;;;10.02;;
60241;SDS011;46103;52.076;113.488;2023-08-08T06:56:04;9.50;;;8.48;;
60241;SDS011;46103;52.076;113.488;2023-08-08T06:59:12;9.18;;;7.75;;
60241;SDS011;46103;52.076;113.488;2023-08-08T07:02:19;10.88;;;9.95;;
60241;SDS011;46103;52.076;113.488;2023-08-08T07:05:33;9.52;;;8.45;;
60241;SDS011;46103;52.076;113.488;2023-08-08T07:08:39;9.10;;;8.20;;
60241;SDS011;46103;52.076;113.488;2023-08-08T07:11:47;10.20;;;8.50;;
60241;SDS011;46103;52.076;113.488;2023-08-08T07:14:51;12.98;;;12.07;;
60241;SDS011;46103;52.076;113.488;2023-08-08T07:17:59;9.18;;;8.23;;
60241;SDS011;46103;52.076;113.488;2023-08-08T07:21:03;13.60;;;12.50;;
60241;SDS011;46103;52.076;113.488;2023-08-08T07:24:13;13.38;;;12.48;;
60241;SDS011;46103;52.076;113.488;2023-08-08T07:27:19;9.65;;;8.82;;
60241;SDS011;46103;52.076;113.488;2023-08-08T07:30:24;9.70;;;8.77;;
60241;SDS011;46103;52.076;113.488;2023-08-08T07:33:34;10.38;;;9.55;;
60241;SDS011;46103;52.076;113.488;2023-08-08T07:36:44;10.77;;;9.88;;
60241;SDS011;46103;52.076;113.488;2023-08-08T07:39:52;11.20;;;10.02;;
60241;SDS011;46103;52.076;113.488;2023-08-08T07:42:57;10.95;;;10.00;;
60241;SDS011;46103;52.076;113.488;2023-08-08T07:46:01;10.88;;;9.98;;
60241;SDS011;46103;52.076;113.488;2023-08-08T07:49:10;12.05;;;10.98;;
60241;SDS011;46103;52.076;113.488;2023-08-08T07:52:15;11.25;;;10.05;;
60241;SDS011;46103;52.076;113.488;2023-08-08T07:55:21;13.48;;;12.38;;
60241;SDS011;46103;52.076;113.488;2023-08-08T07:58:26;13.90;;;12.98;;
60241;SDS011;46103;52.076;113.488;2023-08-08T08:01:32;14.57;;;13.57;;
60241;SDS011;46103;52.076;113.488;2023-08-08T08:05:02;16.42;;;15.43;;
60241;SDS011;46103;52.076;113.488;2023-08-08T08:08:10;17.25;;;16.25;;
60241;SDS011;46103;52.076;113.488;2023-08-08T08:11:16;16.63;;;15.52;;
60241;SDS011;46103;52.076;113.488;2023-08-08T08:14:48;17.98;;;16.95;;
60241;SDS011;46103;52.076;113.488;2023-08-08T08:17:55;17.80;;;16.70;;
60241;SDS011;46103;52.076;113.488;2023-08-08T08:21:02;17.27;;;16.08;;
60241;SDS011;46103;52.076;113.488;2023-08-08T08:24:11;19.65;;;18.55;;
60241;SDS011;46103;52.076;113.488;2023-08-08T08:27:17;20.73;;;19.60;;
60241;SDS011;46103;52.076;113.488;2023-08-08T08:30:24;28.70;;;27.40;;
60241;SDS011;46103;52.076;113.488;2023-08-08T08:33:30;23.77;;;22.48;;
60241;SDS011;46103;52.076;113.488;2023-08-08T08:36:38;21.65;;;20.45;;
60241;SDS011;46103;52.076;113.488;2023-08-08T08:39:42;24.95;;;23.88;;
60241;SDS011;46103;52.076;113.488;2023-08-08T08:43:08;28.65;;;27.35;;
60241;SDS011;46103;52.076;113.488;2023-08-08T08:46:18;25.20;;;24.00;;
60241;SDS011;46103;52.076;113.488;2023-08-08T08:49:25;23.90;;;22.65;;
60241;SDS011;46103;52.076;113.488;2023-08-08T08:52:35;26.25;;;24.95;;
60241;SDS011;46103;52.076;113.488;2023-08-08T08:55:42;25.65;;;24.42;;
60241;SDS011;46103;52.076;113.488;2023-08-08T08:58:48;29.55;;;28.15;;
60241;SDS011;46103;52.076;113.488;2023-08-08T09:01:56;23.70;;;22.30;;
60241;SDS011;46103;52.076;113.488;2023-08-08T09:05:25;27.65;;;26.45;;
60241;SDS011;46103;52.076;113.488;2023-08-08T09:08:36;26.55;;;25.23;;
60241;SDS011;46103;52.076;113.488;2023-08-08T09:11:47;28.20;;;27.00;;
60241;SDS011;46103;52.076;113.488;2023-08-08T09:14:55;27.67;;;26.40;;
60241;SDS011;46103;52.076;113.488;2023-08-08T09:18:03;24.50;;;23.30;;
60241;SDS011;46103;52.076;113.488;2023-08-08T09:21:09;26.05;;;24.85;;
60241;SDS011;46103;52.076;113.488;2023-08-08T09:24:19;28.42;;;27.08;;
60241;SDS011;46103;52.076;113.488;2023-08-08T09:27:24;24.40;;;23.13;;
60241;SDS011;46103;52.076;113.488;2023-08-08T09:30:32;17.00;;;15.98;;
60241;SDS011;46103;52.076;113.488;2023-08-08T09:33:38;19.75;;;18.65;;
60241;SDS011;46103;52.076;113.488;2023-08-08T09:36:47;19.67;;;18.48;;
60241;SDS011;46103;52.076;113.488;2023-08-08T09:40:01;20.65;;;19.38;;
60241;SDS011;46103;52.076;113.488;2023-08-08T09:43:09;20.10;;;18.98;;
60241;SDS011;46103;52.076;113.488;2023-08-08T09:46:28;17.05;;;16.05;;
60241;SDS011;46103;52.076;113.488;2023-08-08T09:49:38;21.23;;;20.05;;
60241;SDS011;46103;52.076;113.488;2023-08-08T09:52:45;17.55;;;16.45;;
60241;SDS011;46103;52.076;113.488;2023-08-08T09:55:57;21.85;;;20.65;;
60241;SDS011;46103;52.076;113.488;2023-08-08T09:59:03;16.60;;;15.50;;
60241;SDS011;46103;52.076;113.488;2023-08-08T10:02:21;18.08;;;16.98;;
60241;SDS011;46103;52.076;113.488;2023-08-08T10:05:35;17.88;;;16.70;;
60241;SDS011;46103;52.076;113.488;2023-08-08T10:08:44;17.63;;;16.42;;
60241;SDS011;46103;52.076;113.488;2023-08-08T10:11:50;18.17;;;17.00;;
60241;SDS011;46103;52.076;113.488;2023-08-08T10:14:56;18.65;;;17.48;;
60241;SDS011;46103;52.076;113.488;2023-08-08T10:18:02;21.48;;;20.27;;
60241;SDS011;46103;52.076;113.488;2023-08-08T10:21:06;21.20;;;20.00;;
60241;SDS011;46103;52.076;113.488;2023-08-08T10:24:12;23.77;;;22.30;;
60241;SDS011;46103;52.076;113.488;2023-08-08T10:27:26;20.83;;;19.70;;
60241;SDS011;46103;52.076;113.488;2023-08-08T10:30:53;19.95;;;18.85;;
60241;SDS011;46103;52.076;113.488;2023-08-08T10:34:05;13.55;;;12.55;;
60241;SDS011;46103;52.076;113.488;2023-08-08T10:37:16;18.38;;;17.27;;
60241;SDS011;46103;52.076;113.488;2023-08-08T10:40:24;15.02;;;13.95;;
60241;SDS011;46103;52.076;113.488;2023-08-08T10:43:35;14.88;;;13.85;;
60241;SDS011;46103;52.076;113.488;2023-08-08T10:46:40;16.55;;;15.48;;
60241;SDS011;46103;52.076;113.488;2023-08-08T10:49:45;12.68;;;11.68;;
60241;SDS011;46103;52.076;113.488;2023-08-08T10:53:01;13.75;;;12.77;;
60241;SDS011;46103;52.076;113.488;2023-08-08T10:56:06;12.13;;;11.13;;
60241;SDS011;46103;52.076;113.488;2023-08-08T10:59:20;15.63;;;14.63;;
60241;SDS011;46103;52.076;113.488;2023-08-08T11:06:58;14.07;;;12.98;;
60241;SDS011;46103;52.076;113.488;2023-08-08T11:10:03;16.35;;;15.13;;
60241;SDS011;46103;52.076;113.488;2023-08-08T11:13:07;16.13;;;15.02;;
60241;SDS011;46103;52.076;113.488;2023-08-08T11:16:12;15.32;;;13.75;;
60241;SDS011;46103;52.076;113.488;2023-08-08T11:19:18;13.10;;;11.88;;
60241;SDS011;46103;52.076;113.488;2023-08-08T11:22:22;15.27;;;13.88;;
60241;SDS011;46103;52.076;113.488;2023-08-08T11:25:26;14.55;;;13.25;;
60241;SDS011;46103;52.076;113.488;2023-08-08T11:28:31;14.95;;;13.48;;
60241;SDS011;46103;52.076;113.488;2023-08-08T11:31:34;12.02;;;10.98;;
60241;SDS011;46103;52.076;113.488;2023-08-08T11:34:39;12.40;;;11.23;;
60241;SDS011;46103;52.076;113.488;2023-08-08T11:37:45;12.40;;;11.18;;
60241;SDS011;46103;52.076;113.488;2023-08-08T11:40:49;16.38;;;14.98;;
60241;SDS011;46103;52.076;113.488;2023-08-08T11:43:55;11.88;;;10.68;;
60241;SDS011;46103;52.076;113.488;2023-08-08T11:47:01;14.80;;;12.10;;
60241;SDS011;46103;52.076;113.488;2023-08-08T11:50:08;16.33;;;14.70;;
60241;SDS011;46103;52.076;113.488;2023-08-08T11:53:16;16.30;;;14.50;;
60241;SDS011;46103;52.076;113.488;2023-08-08T11:56:23;14.77;;;12.32;;
60241;SDS011;46103;52.076;113.488;2023-08-08T11:59:30;15.27;;;12.25;;
60241;SDS011;46103;52.076;113.488;2023-08-08T12:02:35;16.88;;;15.07;;
60241;SDS011;46103;52.076;113.488;2023-08-08T12:05:39;17.13;;;14.32;;
60241;SDS011;46103;52.076;113.488;2023-08-08T12:08:43;14.20;;;11.45;;
60241;SDS011;46103;52.076;113.488;2023-08-08T12:12:10;14.45;;;12.40;;
60241;SDS011;46103;52.076;113.488;2023-08-08T12:19:44;12.50;;;11.23;;
60241;SDS011;46103;52.076;113.488;2023-08-08T12:22:48;13.63;;;11.52;;
60241;SDS011;46103;52.076;113.488;2023-08-08T12:25:53;16.67;;;12.70;;
60241;SDS011;46103;52.076;113.488;2023-08-08T12:28:56;12.68;;;11.18;;
60241;SDS011;46103;52.076;113.488;2023-08-08T12:32:00;14.88;;;10.43;;
60241;SDS011;46103;52.076;113.488;2023-08-08T12:35:05;16.25;;;12.10;;
60241;SDS011;46103;52.076;113.488;2023-08-08T12:38:11;13.27;;;11.15;;
60241;SDS011;46103;52.076;113.488;2023-08-08T12:41:16;13.98;;;11.15;;
60241;SDS011;46103;52.076;113.488;2023-08-08T12:44:21;17.15;;;12.70;;
60241;SDS011;46103;52.076;113.488;2023-08-08T12:47:27;14.93;;;10.57;;
60241;SDS011;46103;52.076;113.488;2023-08-08T12:50:35;15.68;;;11.75;;
60241;SDS011;46103;52.076;113.488;2023-08-08T12:53:41;15.63;;;11.27;;
60241;SDS011;46103;52.076;113.488;2023-08-08T12:56:48;13.95;;;12.32;;
60241;SDS011;46103;52.076;113.488;2023-08-08T12:59:53;12.25;;;10.40;;
60241;SDS011;46103;52.076;113.488;2023-08-08T13:02:59;16.45;;;14.32;;
60241;SDS011;46103;52.076;113.488;2023-08-08T13:06:05;14.75;;;11.68;;
60241;SDS011;46103;52.076;113.488;2023-08-08T13:09:10;15.43;;;11.43;;
60241;SDS011;46103;52.076;113.488;2023-08-08T13:12:18;11.88;;;9.00;;
60241;SDS011;46103;52.076;113.488;2023-08-08T13:15:37;11.55;;;10.18;;
60241;SDS011;46103;52.076;113.488;2023-08-08T13:18:44;13.98;;;9.90;;
60241;SDS011;46103;52.076;113.488;2023-08-08T13:21:52;10.27;;;9.00;;
60241;SDS011;46103;52.076;113.488;2023-08-08T13:25:11;12.57;;;9.45;;
60241;SDS011;46103;52.076;113.488;2023-08-08T13:31:23;10.43;;;8.38;;
60241;SDS011;46103;52.076;113.488;2023-08-08T13:34:29;13.00;;;9.82;;
60241;SDS011;46103;52.076;113.488;2023-08-08T13:37:36;14.32;;;10.60;;
60241;SDS011;46103;52.076;113.488;2023-08-08T13:40:45;10.98;;;9.10;;
60241;SDS011;46103;52.076;113.488;2023-08-08T13:44:04;14.98;;;10.90;;
60241;SDS011;46103;52.076;113.488;2023-08-08T13:47:10;15.93;;;11.77;;
60241;SDS011;46103;52.076;113.488;2023-08-08T13:50:15;13.63;;;10.52;;
60241;SDS011;46103;52.076;113.488;2023-08-08T13:53:22;15.30;;;11.30;;
60241;SDS011;46103;52.076;113.488;2023-08-08T13:56:25;14.60;;;10.02;;
60241;SDS011;46103;52.076;113.488;2023-08-08T13:59:30;12.70;;;10.27;;
60241;SDS011;46103;52.076;113.488;2023-08-08T14:02:34;14.90;;;11.70;;
60241;SDS011;46103;52.076;113.488;2023-08-08T14:05:40;16.63;;;10.95;;
60241;SDS011;46103;52.076;113.488;2023-08-08T14:08:44;15.40;;;11.32;;
60241;SDS011;46103;52.076;113.488;2023-08-08T14:11:49;16.25;;;10.23;;
60241;SDS011;46103;52.076;113.488;2023-08-08T14:14:53;12.02;;;9.30;;
60241;SDS011;46103;52.076;113.488;2023-08-08T14:17:58;11.68;;;9.35;;
60241;SDS011;46103;52.076;113.488;2023-08-08T14:21:02;11.25;;;8.73;;
60241;SDS011;46103;52.076;113.488;2023-08-08T14:24:09;11.95;;;9.80;;
60241;SDS011;46103;52.076;113.488;2023-08-08T14:27:13;14.50;;;10.88;;
60241;SDS011;46103;52.076;113.488;2023-08-08T14:30:17;17.48;;;13.13;;
60241;SDS011;46103;52.076;113.488;2023-08-08T14:33:20;17.48;;;14.15;;
60241;SDS011;46103;52.076;113.488;2023-08-08T14:36:24;17.33;;;13.10;;
60241;SDS011;46103;52.076;113.488;2023-08-08T14:39:28;16.33;;;11.50;;
60241;SDS011;46103;52.076;113.488;2023-08-08T14:42:31;13.75;;;10.32;;
60241;SDS011;46103;52.076;113.488;2023-08-08T14:45:36;13.27;;;10.50;;
60241;SDS011;46103;52.076;113.488;2023-08-08T14:48:41;11.52;;;10.32;;
60241;SDS011;46103;52.076;113.488;2023-08-08T14:51:45;13.07;;;9.77;;
60241;SDS011;46103;52.076;113.488;2023-08-08T14:54:48;12.07;;;9.23;;
60241;SDS011;46103;52.076;113.488;2023-08-08T14:57:53;12.93;;;9.82;;
60241;SDS011;46103;52.076;113.488;2023-08-08T15:00:56;13.52;;;10.07;;
60241;SDS011;46103;52.076;113.488;2023-08-08T15:04:00;14.07;;;10.57;;
60241;SDS011;46103;52.076;113.488;2023-08-08T15:07:05;14.05;;;10.85;;
60241;SDS011;46103;52.076;113.488;2023-08-08T15:10:09;18.38;;;12.23;;
60241;SDS011;46103;52.076;113.488;2023-08-08T15:13:15;13.07;;;9.93;;
60241;SDS011;46103;52.076;113.488;2023-08-08T15:16:19;13.23;;;8.93;;
60241;SDS011;46103;52.076;113.488;2023-08-08T15:19:23;12.48;;;9.80;;
60241;SDS011;46103;52.076;113.488;2023-08-08T15:22:27;13.05;;;8.70;;
60241;SDS011;46103;52.076;113.488;2023-08-08T15:25:31;12.77;;;9.98;;
60241;SDS011;46103;52.076;113.488;2023-08-08T15:28:36;12.20;;;9.02;;
60241;SDS011;46103;52.076;113.488;2023-08-08T15:31:40;11.40;;;8.93;;
60241;SDS011;46103;52.076;113.488;2023-08-08T15:34:46;12.63;;;9.38;;
60241;SDS011;46103;52.076;113.488;2023-08-08T15:37:50;12.30;;;9.93;;
60241;SDS011;46103;52.076;113.488;2023-08-08T15:40:54;11.63;;;10.30;;
60241;SDS011;46103;52.076;113.488;2023-08-08T15:43:58;13.98;;;10.80;;
60241;SDS011;46103;52.076;113.488;2023-08-08T15:47:02;15.45;;;10.85;;
60241;SDS011;46103;52.076;113.488;2023-08-08T15:50:07;13.98;;;11.15;;
60241;SDS011;46103;52.076;113.488;2023-08-08T15:53:12;13.40;;;10.70;;
60241;SDS011;46103;52.076;113.488;2023-08-08T15:56:16;15.65;;;10.73;;
60241;SDS011;46103;52.076;113.488;2023-08-08T15:59:20;12.13;;;9.68;;
60241;SDS011;46103;52.076;113.488;2023-08-08T16:02:24;12.60;;;9.98;;
60241;SDS011;46103;52.076;113.488;2023-08-08T16:05:28;12.13;;;10.00;;
60241;SDS011;46103;52.076;113.488;2023-08-08T16:08:32;15.40;;;10.80;;
60241;SDS011;46103;52.076;113.488;2023-08-08T16:11:36;13.68;;;9.52;;
60241;SDS011;46103;52.076;113.488;2023-08-08T16:14:40;13.32;;;10.00;;
60241;SDS011;46103;52.076;113.488;2023-08-08T16:17:45;13.55;;;10.52;;
60241;SDS011;46103;52.076;113.488;2023-08-08T16:20:49;15.43;;;11.05;;
60241;SDS011;46103;52.076;113.488;2023-08-08T16:23:52;13.23;;;9.90;;
60241;SDS011;46103;52.076;113.488;2023-08-08T16:26:56;12.70;;;10.43;;
60241;SDS011;46103;52.076;113.488;2023-08-08T16:30:00;14.65;;;10.55;;
60241;SDS011;46103;52.076;113.488;2023-08-08T16:33:04;13.50;;;9.57;;
60241;SDS011;46103;52.076;113.488;2023-08-08T16:36:09;14.30;;;10.25;;
60241;SDS011;46103;52.076;113.488;2023-08-08T16:39:12;14.90;;;10.52;;
60241;SDS011;46103;52.076;113.488;2023-08-08T16:42:20;15.10;;;10.05;;
60241;SDS011;46103;52.076;113.488;2023-08-08T16:45:23;13.25;;;10.50;;
60241;SDS011;46103;52.076;113.488;2023-08-08T16:48:27;13.13;;;10.05;;
60241;SDS011;46103;52.076;113.488;2023-08-08T16:51:31;13.88;;;9.38;;
60241;SDS011;46103;52.076;113.488;2023-08-08T16:54:35;11.40;;;9.60;;
60241;SDS011;46103;52.076;113.488;2023-08-08T16:57:39;14.43;;;10.73;;
60241;SDS011;46103;52.076;113.488;2023-08-08T17:00:43;13.48;;;10.40;;
60241;SDS011;46103;52.076;113.488;2023-08-08T17:03:47;12.82;;;10.63;;
60241;SDS011;46103;52.076;113.488;2023-08-08T17:06:51;11.68;;;9.90;;
60241;SDS011;46103;52.076;113.488;2023-08-08T17:09:58;12.90;;;9.43;;
60241;SDS011;46103;52.076;113.488;2023-08-08T17:13:02;14.40;;;9.63;;
60241;SDS011;46103;52.076;113.488;2023-08-08T17:16:06;13.85;;;10.50;;
60241;SDS011;46103;52.076;113.488;2023-08-08T17:19:09;12.98;;;9.93;;
60241;SDS011;46103;52.076;113.488;2023-08-08T17:22:13;12.35;;;9.55;;
60241;SDS011;46103;52.076;113.488;2023-08-08T17:25:17;11.48;;;9.00;;
60241;SDS011;46103;52.076;113.488;2023-08-08T17:28:20;14.38;;;9.88;;
60241;SDS011;46103;52.076;113.488;2023-08-08T17:31:24;13.90;;;10.07;;
60241;SDS011;46103;52.076;113.488;2023-08-08T17:34:28;14.77;;;10.60;;
60241;SDS011;46103;52.076;113.488;2023-08-08T17:37:32;14.30;;;10.02;;
60241;SDS011;46103;52.076;113.488;2023-08-08T17:40:36;13.15;;;9.32;;
60241;SDS011;46103;52.076;113.488;2023-08-08T17:43:40;13.68;;;9.43;;
60241;SDS011;46103;52.076;113.488;2023-08-08T17:46:44;16.13;;;10.23;;
60241;SDS011;46103;52.076;113.488;2023-08-08T17:49:48;13.40;;;10.02;;
60241;SDS011;46103;52.076;113.488;2023-08-08T17:52:51;15.13;;;9.15;;
60241;SDS011;46103;52.076;113.488;2023-08-08T17:55:56;16.23;;;10.75;;
60241;SDS011;46103;52.076;113.488;2023-08-08T17:58:59;14.82;;;9.98;;